sensor_id;sensor_type;location;lat;lon;timestamp;temperature;humidity
12111;DHT22;6119;52.372;8.990;2024-01-10T00:00:18;-4.30;99.90
12111;DHT22;6119;52.372;8.990;2024-01-10T00:03:05;-4.30;99.90
12111;DHT22;6119;52.372;8.990;2024-01-10T00:05:53;-4.30;99.90
12111;DHT22;6119;52.372;8.990;2024-01-10T00:08:40;-4.40;99.90
12111;DHT22;6119;52.372;8.990;2024-01-10T00:11:27;-4.40;99.90
12111;DHT22;6119;52.372;8.990;2024-01-10T00:14:16;-4.40;99.90
12111;DHT22;6119;52.372;8.990;2024-01-10T00:17:03;-4.40;99.90
12111;DHT22;6119;52.372;8.990;2024-01-10T00:19:50;-4.50;99.90
12111;DHT22;6119;52.372;8.990;2024-01-10T00:22:37;-4.40;99.90
12111;DHT22;6119;52.372;8.990;2024-01-10T00:25:24;-4.40;99.90
12111;DHT22;6119;52.372;8.990;2024-01-10T00:28:11;-4.40;99.90
12111;DHT22;6119;52.372;8.990;2024-01-10T00:30:57;-4.40;99.90
12111;DHT22;6119;52.372;8.990;2024-01-10T00:33:44;-4.30;99.90
12111;DHT22;6119;52.372;8.990;2024-01-10T00:36:31;-4.30;99.90
12111;DHT22;6119;52.372;8.990;2024-01-10T00:39:19;-4.40;99.90
12111;DHT22;6119;52.372;8.990;2024-01-10T00:42:06;-4.40;99.90
12111;DHT22;6119;52.372;8.990;2024-01-10T00:44:53;-4.50;99.90
12111;DHT22;6119;52.372;8.990;2024-01-10T00:47:39;-4.50;99.90
12111;DHT22;6119;52.372;8.990;2024-01-10T00:50:26;-4.50;99.90
12111;DHT22;6119;52.372;8.990;2024-01-10T00:53:12;-4.50;99.90
12111;DHT22;6119;52.372;8.990;2024-01-10T00:56:01;-4.50;99.90
12111;DHT22;6119;52.372;8.990;2024-01-10T00:58:47;-4.50;99.90
12111;DHT22;6119;52.372;8.990;2024-01-10T01:01:34;-4.50;99.90
12111;DHT22;6119;52.372;8.990;2024-01-10T01:04:20;-4.50;99.90
12111;DHT22;6119;52.372;8.990;2024-01-10T01:07:07;-4.50;99.90
12111;DHT22;6119;52.372;8.990;2024-01-10T01:09:54;-4.50;99.90
12111;DHT22;6119;52.372;8.990;2024-01-10T01:12:42;-4.50;99.90
12111;DHT22;6119;52.372;8.990;2024-01-10T01:15:29;-4.50;99.90
12111;DHT22;6119;52.372;8.990;2024-01-10T01:18:15;-4.50;99.90
12111;DHT22;6119;52.372;8.990;2024-01-10T01:21:03;-4.60;99.90
12111;DHT22;6119;52.372;8.990;2024-01-10T01:23:49;-4.50;99.90
12111;DHT22;6119;52.372;8.990;2024-01-10T01:26:36;-4.60;99.90
12111;DHT22;6119;52.372;8.990;2024-01-10T01:29:24;-4.60;99.90
12111;DHT22;6119;52.372;8.990;2024-01-10T01:32:11;-4.60;99.90
12111;DHT22;6119;52.372;8.990;2024-01-10T01:34:58;-4.60;99.90
12111;DHT22;6119;52.372;8.990;2024-01-10T01:37:44;-4.50;99.90
12111;DHT22;6119;52.372;8.990;2024-01-10T01:40:31;-4.50;99.90
12111;DHT22;6119;52.372;8.990;2024-01-10T01:43:19;-4.50;99.90
12111;DHT22;6119;52.372;8.990;2024-01-10T01:46:08;-4.50;99.90
12111;DHT22;6119;52.372;8.990;2024-01-10T01:48:55;-4.50;99.90
12111;DHT22;6119;52.372;8.990;2024-01-10T01:51:42;-4.50;99.90
12111;DHT22;6119;52.372;8.990;2024-01-10T01:54:29;-4.60;99.90
12111;DHT22;6119;52.372;8.990;2024-01-10T01:57:17;-4.60;99.90
12111;DHT22;6119;52.372;8.990;2024-01-10T02:00:04;-4.60;99.90
12111;DHT22;6119;52.372;8.990;2024-01-10T02:02:53;-4.60;99.90
12111;DHT22;6119;52.372;8.990;2024-01-10T02:05:40;-4.60;99.90
12111;DHT22;6119;52.372;8.990;2024-01-10T02:08:27;-4.60;99.90
12111;DHT22;6119;52.372;8.990;2024-01-10T02:11:14;-4.60;99.90
12111;DHT22;6119;52.372;8.990;2024-01-10T02:14:00;-4.60;99.90
12111;DHT22;6119;52.372;8.990;2024-01-10T02:16:47;-4.60;99.90
12111;DHT22;6119;52.372;8.990;2024-01-10T02:19:36;-4.60;99.90
12111;DHT22;6119;52.372;8.990;2024-01-10T02:22:22;-4.60;99.90
12111;DHT22;6119;52.372;8.990;2024-01-10T02:25:10;-4.70;99.90
12111;DHT22;6119;52.372;8.990;2024-01-10T02:27:57;-4.60;99.90
12111;DHT22;6119;52.372;8.990;2024-01-10T02:30:43;-4.60;99.90
12111;DHT22;6119;52.372;8.990;2024-01-10T02:33:32;-4.60;99.90
12111;DHT22;6119;52.372;8.990;2024-01-10T02:36:18;-4.70;99.90
12111;DHT22;6119;52.372;8.990;2024-01-10T02:39:05;-4.70;99.90
12111;DHT22;6119;52.372;8.990;2024-01-10T02:41:53;-4.80;99.90
12111;DHT22;6119;52.372;8.990;2024-01-10T02:44:39;-4.80;99.90
12111;DHT22;6119;52.372;8.990;2024-01-10T02:47:26;-4.80;99.90
12111;DHT22;6119;52.372;8.990;2024-01-10T02:50:14;-4.80;99.90
12111;DHT22;6119;52.372;8.990;2024-01-10T02:53:02;-4.80;99.90
12111;DHT22;6119;52.372;8.990;2024-01-10T02:55:49;-4.80;99.90
12111;DHT22;6119;52.372;8.990;2024-01-10T02:58:37;-4.90;99.90
12111;DHT22;6119;52.372;8.990;2024-01-10T03:01:24;-4.90;99.90
12111;DHT22;6119;52.372;8.990;2024-01-10T03:04:10;-4.80;99.90
12111;DHT22;6119;52.372;8.990;2024-01-10T03:06:57;-4.90;99.90
12111;DHT22;6119;52.372;8.990;2024-01-10T03:09:44;-4.70;99.90
12111;DHT22;6119;52.372;8.990;2024-01-10T03:12:30;-4.80;99.90
12111;DHT22;6119;52.372;8.990;2024-01-10T03:15:18;-4.70;99.90
12111;DHT22;6119;52.372;8.990;2024-01-10T03:18:05;-4.80;99.90
12111;DHT22;6119;52.372;8.990;2024-01-10T03:20:51;-4.70;99.90
12111;DHT22;6119;52.372;8.990;2024-01-10T03:23:38;-4.70;99.90
12111;DHT22;6119;52.372;8.990;2024-01-10T03:26:26;-4.70;99.90
12111;DHT22;6119;52.372;8.990;2024-01-10T03:29:13;-4.80;99.90
12111;DHT22;6119;52.372;8.990;2024-01-10T03:32:01;-4.80;99.90
12111;DHT22;6119;52.372;8.990;2024-01-10T03:34:48;-4.70;99.90
12111;DHT22;6119;52.372;8.990;2024-01-10T03:37:36;-4.70;99.90
12111;DHT22;6119;52.372;8.990;2024-01-10T03:40:24;-4.70;99.90
12111;DHT22;6119;52.372;8.990;2024-01-10T03:43:10;-4.70;99.90
12111;DHT22;6119;52.372;8.990;2024-01-10T03:45:57;-4.70;99.90
12111;DHT22;6119;52.372;8.990;2024-01-10T03:48:45;-4.80;99.90
12111;DHT22;6119;52.372;8.990;2024-01-10T03:51:34;-4.80;99.90
12111;DHT22;6119;52.372;8.990;2024-01-10T03:54:20;-4.80;99.90
12111;DHT22;6119;52.372;8.990;2024-01-10T03:57:07;-4.80;99.90
12111;DHT22;6119;52.372;8.990;2024-01-10T03:59:53;-4.70;99.90
12111;DHT22;6119;52.372;8.990;2024-01-10T04:02:40;-4.70;99.90
12111;DHT22;6119;52.372;8.990;2024-01-10T04:05:28;-4.70;99.90
12111;DHT22;6119;52.372;8.990;2024-01-10T04:08:14;-4.70;99.90
12111;DHT22;6119;52.372;8.990;2024-01-10T04:11:03;-4.70;99.90
12111;DHT22;6119;52.372;8.990;2024-01-10T04:13:50;-4.70;99.90
12111;DHT22;6119;52.372;8.990;2024-01-10T04:16:37;-4.70;99.90
12111;DHT22;6119;52.372;8.990;2024-01-10T04:19:23;-4.70;99.90
12111;DHT22;6119;52.372;8.990;2024-01-10T04:22:11;-4.80;99.90
12111;DHT22;6119;52.372;8.990;2024-01-10T04:24:59;-4.80;99.90
12111;DHT22;6119;52.372;8.990;2024-01-10T04:27:46;-4.70;99.90
12111;DHT22;6119;52.372;8.990;2024-01-10T04:30:35;-4.80;99.90
12111;DHT22;6119;52.372;8.990;2024-01-10T04:33:21;-4.80;99.90
12111;DHT22;6119;52.372;8.990;2024-01-10T04:36:08;-4.80;99.90
12111;DHT22;6119;52.372;8.990;2024-01-10T04:38:56;-4.80;99.90
12111;DHT22;6119;52.372;8.990;2024-01-10T04:41:43;-4.80;99.90
12111;DHT22;6119;52.372;8.990;2024-01-10T04:44:29;-4.70;99.90
12111;DHT22;6119;52.372;8.990;2024-01-10T04:47:16;-4.80;99.90
12111;DHT22;6119;52.372;8.990;2024-01-10T04:50:03;-4.80;99.90
12111;DHT22;6119;52.372;8.990;2024-01-10T04:52:54;-4.80;99.90
12111;DHT22;6119;52.372;8.990;2024-01-10T04:55:42;-4.80;99.90
12111;DHT22;6119;52.372;8.990;2024-01-10T04:58:29;-4.80;99.90
12111;DHT22;6119;52.372;8.990;2024-01-10T05:01:18;-4.80;99.90
12111;DHT22;6119;52.372;8.990;2024-01-10T05:04:04;-4.90;99.90
12111;DHT22;6119;52.372;8.990;2024-01-10T05:06:51;-4.90;99.90
12111;DHT22;6119;52.372;8.990;2024-01-10T05:09:38;-4.90;99.90
12111;DHT22;6119;52.372;8.990;2024-01-10T05:12:26;-4.90;99.90
12111;DHT22;6119;52.372;8.990;2024-01-10T05:15:13;-4.90;99.90
12111;DHT22;6119;52.372;8.990;2024-01-10T05:18:00;-4.90;99.90
12111;DHT22;6119;52.372;8.990;2024-01-10T05:20:47;-4.90;99.90
12111;DHT22;6119;52.372;8.990;2024-01-10T05:23:34;-4.90;99.90
12111;DHT22;6119;52.372;8.990;2024-01-10T05:26:20;-4.90;99.90
12111;DHT22;6119;52.372;8.990;2024-01-10T05:29:09;-4.90;99.90
12111;DHT22;6119;52.372;8.990;2024-01-10T05:31:55;-4.90;99.90
12111;DHT22;6119;52.372;8.990;2024-01-10T05:34:42;-4.90;99.90
12111;DHT22;6119;52.372;8.990;2024-01-10T05:37:29;-5.00;99.90
12111;DHT22;6119;52.372;8.990;2024-01-10T05:40:15;-4.90;99.90
12111;DHT22;6119;52.372;8.990;2024-01-10T05:43:02;-4.90;99.90
12111;DHT22;6119;52.372;8.990;2024-01-10T05:45:50;-4.90;99.90
12111;DHT22;6119;52.372;8.990;2024-01-10T05:48:36;-4.90;99.90
12111;DHT22;6119;52.372;8.990;2024-01-10T05:51:23;-5.00;99.90
12111;DHT22;6119;52.372;8.990;2024-01-10T05:54:10;-5.00;99.90
12111;DHT22;6119;52.372;8.990;2024-01-10T05:56:56;-5.00;99.90
12111;DHT22;6119;52.372;8.990;2024-01-10T05:59:43;-5.00;99.90
12111;DHT22;6119;52.372;8.990;2024-01-10T06:02:31;-4.90;99.90
12111;DHT22;6119;52.372;8.990;2024-01-10T06:05:18;-5.00;99.90
12111;DHT22;6119;52.372;8.990;2024-01-10T06:08:05;-5.10;99.90
12111;DHT22;6119;52.372;8.990;2024-01-10T06:10:52;-5.10;99.90
12111;DHT22;6119;52.372;8.990;2024-01-10T06:13:39;-5.20;99.90
12111;DHT22;6119;52.372;8.990;2024-01-10T06:16:38;-5.10;99.90
12111;DHT22;6119;52.372;8.990;2024-01-10T06:19:26;-5.10;99.90
12111;DHT22;6119;52.372;8.990;2024-01-10T06:22:13;-5.10;99.90
12111;DHT22;6119;52.372;8.990;2024-01-10T06:25:00;-5.10;99.90
12111;DHT22;6119;52.372;8.990;2024-01-10T06:27:46;-5.10;99.90
12111;DHT22;6119;52.372;8.990;2024-01-10T06:30:33;-5.20;99.90
12111;DHT22;6119;52.372;8.990;2024-01-10T06:33:20;-5.10;99.90
12111;DHT22;6119;52.372;8.990;2024-01-10T06:36:09;-5.20;99.90
12111;DHT22;6119;52.372;8.990;2024-01-10T06:38:56;-5.20;99.90
12111;DHT22;6119;52.372;8.990;2024-01-10T06:41:43;-4.20;99.90
12111;DHT22;6119;52.372;8.990;2024-01-10T06:44:29;-5.20;99.90
12111;DHT22;6119;52.372;8.990;2024-01-10T06:47:16;-5.10;99.90
12111;DHT22;6119;52.372;8.990;2024-01-10T06:50:04;-5.10;99.90
12111;DHT22;6119;52.372;8.990;2024-01-10T06:52:52;-5.10;99.90
12111;DHT22;6119;52.372;8.990;2024-01-10T06:55:38;-5.20;99.90
12111;DHT22;6119;52.372;8.990;2024-01-10T06:58:25;-5.20;99.90
12111;DHT22;6119;52.372;8.990;2024-01-10T07:01:12;-5.20;99.90
12111;DHT22;6119;52.372;8.990;2024-01-10T07:04:00;-5.30;99.90
12111;DHT22;6119;52.372;8.990;2024-01-10T07:06:46;-5.30;99.90
12111;DHT22;6119;52.372;8.990;2024-01-10T07:09:34;-5.20;99.90
12111;DHT22;6119;52.372;8.990;2024-01-10T07:12:21;-5.20;99.90
12111;DHT22;6119;52.372;8.990;2024-01-10T07:15:08;-5.20;99.90
12111;DHT22;6119;52.372;8.990;2024-01-10T07:17:55;-5.30;99.90
12111;DHT22;6119;52.372;8.990;2024-01-10T07:20:41;-5.30;99.90
12111;DHT22;6119;52.372;8.990;2024-01-10T07:23:28;-5.30;99.90
12111;DHT22;6119;52.372;8.990;2024-01-10T07:26:18;-4.90;99.90
12111;DHT22;6119;52.372;8.990;2024-01-10T07:29:05;-5.20;99.90
12111;DHT22;6119;52.372;8.990;2024-01-10T07:31:54;-5.20;99.90
12111;DHT22;6119;52.372;8.990;2024-01-10T07:34:41;-5.20;99.90
12111;DHT22;6119;52.372;8.990;2024-01-10T07:37:28;-5.20;99.90
12111;DHT22;6119;52.372;8.990;2024-01-10T07:40:15;-5.20;99.90
12111;DHT22;6119;52.372;8.990;2024-01-10T07:43:03;-5.30;99.90
12111;DHT22;6119;52.372;8.990;2024-01-10T07:45:50;-5.20;99.90
12111;DHT22;6119;52.372;8.990;2024-01-10T07:48:38;-5.20;99.90
12111;DHT22;6119;52.372;8.990;2024-01-10T07:51:25;-5.20;99.90
12111;DHT22;6119;52.372;8.990;2024-01-10T07:54:11;-5.20;99.90
12111;DHT22;6119;52.372;8.990;2024-01-10T07:56:58;-5.20;99.90
12111;DHT22;6119;52.372;8.990;2024-01-10T07:59:46;-5.20;99.90
12111;DHT22;6119;52.372;8.990;2024-01-10T08:02:32;-5.20;99.90
12111;DHT22;6119;52.372;8.990;2024-01-10T08:05:19;-5.30;99.90
12111;DHT22;6119;52.372;8.990;2024-01-10T08:08:07;-5.30;99.90
12111;DHT22;6119;52.372;8.990;2024-01-10T08:10:56;-5.30;99.90
12111;DHT22;6119;52.372;8.990;2024-01-10T08:13:42;-5.30;99.90
12111;DHT22;6119;52.372;8.990;2024-01-10T08:16:30;-5.30;99.90
12111;DHT22;6119;52.372;8.990;2024-01-10T08:19:18;-5.20;99.90
12111;DHT22;6119;52.372;8.990;2024-01-10T08:22:04;-5.20;99.90
12111;DHT22;6119;52.372;8.990;2024-01-10T08:24:53;-5.20;99.90
12111;DHT22;6119;52.372;8.990;2024-01-10T08:27:42;-5.20;99.90
12111;DHT22;6119;52.372;8.990;2024-01-10T08:30:30;-5.10;99.90
12111;DHT22;6119;52.372;8.990;2024-01-10T08:33:19;-5.10;99.90
12111;DHT22;6119;52.372;8.990;2024-01-10T08:36:07;-5.10;99.90
12111;DHT22;6119;52.372;8.990;2024-01-10T08:38:55;-5.10;99.90
12111;DHT22;6119;52.372;8.990;2024-01-10T08:41:41;-5.00;99.90
12111;DHT22;6119;52.372;8.990;2024-01-10T08:44:29;-5.00;99.90
12111;DHT22;6119;52.372;8.990;2024-01-10T08:47:16;-4.90;99.90
12111;DHT22;6119;52.372;8.990;2024-01-10T08:50:05;-4.90;99.90
12111;DHT22;6119;52.372;8.990;2024-01-10T08:52:54;-4.90;99.90
12111;DHT22;6119;52.372;8.990;2024-01-10T08:55:41;-4.90;99.90
12111;DHT22;6119;52.372;8.990;2024-01-10T08:58:27;-4.80;99.90
12111;DHT22;6119;52.372;8.990;2024-01-10T09:01:14;-4.80;99.90
12111;DHT22;6119;52.372;8.990;2024-01-10T09:04:00;-4.70;99.90
12111;DHT22;6119;52.372;8.990;2024-01-10T09:06:50;-4.60;99.90
12111;DHT22;6119;52.372;8.990;2024-01-10T09:09:37;-4.50;99.90
12111;DHT22;6119;52.372;8.990;2024-01-10T09:12:24;-4.50;99.90
12111;DHT22;6119;52.372;8.990;2024-01-10T09:15:11;-4.50;99.90
12111;DHT22;6119;52.372;8.990;2024-01-10T09:18:00;-4.40;99.90
12111;DHT22;6119;52.372;8.990;2024-01-10T09:20:47;-4.30;99.90
12111;DHT22;6119;52.372;8.990;2024-01-10T09:23:35;-4.30;99.90
12111;DHT22;6119;52.372;8.990;2024-01-10T09:26:23;-4.20;99.90
12111;DHT22;6119;52.372;8.990;2024-01-10T09:29:09;-4.10;99.90
12111;DHT22;6119;52.372;8.990;2024-01-10T09:31:57;-4.10;99.90
12111;DHT22;6119;52.372;8.990;2024-01-10T09:34:44;-4.00;99.90
12111;DHT22;6119;52.372;8.990;2024-01-10T09:37:31;-4.10;99.90
12111;DHT22;6119;52.372;8.990;2024-01-10T09:40:20;-4.00;99.90
12111;DHT22;6119;52.372;8.990;2024-01-10T09:43:07;-3.80;99.90
12111;DHT22;6119;52.372;8.990;2024-01-10T09:45:54;-3.90;99.90
12111;DHT22;6119;52.372;8.990;2024-01-10T09:48:41;-3.80;99.90
12111;DHT22;6119;52.372;8.990;2024-01-10T09:51:29;-4.30;99.90
12111;DHT22;6119;52.372;8.990;2024-01-10T09:54:17;-3.70;99.90
12111;DHT22;6119;52.372;8.990;2024-01-10T09:57:06;-3.50;99.90
12111;DHT22;6119;52.372;8.990;2024-01-10T09:59:55;-3.40;99.90
12111;DHT22;6119;52.372;8.990;2024-01-10T10:02:42;-3.40;99.90
12111;DHT22;6119;52.372;8.990;2024-01-10T10:05:29;-3.40;99.90
12111;DHT22;6119;52.372;8.990;2024-01-10T10:08:16;-3.30;99.90
12111;DHT22;6119;52.372;8.990;2024-01-10T10:11:11;-3.30;99.90
12111;DHT22;6119;52.372;8.990;2024-01-10T10:14:14;-3.20;99.90
12111;DHT22;6119;52.372;8.990;2024-01-10T10:17:14;-3.20;99.90
12111;DHT22;6119;52.372;8.990;2024-01-10T10:20:03;-3.20;99.90
12111;DHT22;6119;52.372;8.990;2024-01-10T10:22:58;-3.20;99.90
12111;DHT22;6119;52.372;8.990;2024-01-10T10:25:46;-3.00;99.90
12111;DHT22;6119;52.372;8.990;2024-01-10T10:28:32;-3.10;99.90
12111;DHT22;6119;52.372;8.990;2024-01-10T10:31:23;-2.80;99.90
12111;DHT22;6119;52.372;8.990;2024-01-10T10:34:10;-2.60;99.90
12111;DHT22;6119;52.372;8.990;2024-01-10T10:36:56;-2.20;99.90
12111;DHT22;6119;52.372;8.990;2024-01-10T10:39:43;-2.00;99.90
12111;DHT22;6119;52.372;8.990;2024-01-10T10:42:31;-2.20;99.90
12111;DHT22;6119;52.372;8.990;2024-01-10T10:45:19;-2.30;99.90
12111;DHT22;6119;52.372;8.990;2024-01-10T10:48:16;-2.40;99.90
12111;DHT22;6119;52.372;8.990;2024-01-10T10:51:05;-2.30;99.90
12111;DHT22;6119;52.372;8.990;2024-01-10T10:53:53;-2.50;99.90
12111;DHT22;6119;52.372;8.990;2024-01-10T10:56:40;-2.40;99.90
12111;DHT22;6119;52.372;8.990;2024-01-10T10:59:33;-2.40;99.90
12111;DHT22;6119;52.372;8.990;2024-01-10T11:02:21;-2.50;99.90
12111;DHT22;6119;52.372;8.990;2024-01-10T11:05:15;-2.40;99.90
12111;DHT22;6119;52.372;8.990;2024-01-10T11:08:04;-2.30;99.90
12111;DHT22;6119;52.372;8.990;2024-01-10T11:10:52;-2.20;99.90
12111;DHT22;6119;52.372;8.990;2024-01-10T11:13:54;-2.20;99.90
12111;DHT22;6119;52.372;8.990;2024-01-10T11:23:39;-2.00;99.90
12111;DHT22;6119;52.372;8.990;2024-01-10T11:26:27;-2.00;99.90
12111;DHT22;6119;52.372;8.990;2024-01-10T11:29:14;-1.90;99.90
12111;DHT22;6119;52.372;8.990;2024-01-10T11:32:02;-1.80;99.90
12111;DHT22;6119;52.372;8.990;2024-01-10T11:34:54;-1.80;99.90
12111;DHT22;6119;52.372;8.990;2024-01-10T11:37:43;-1.70;99.90
12111;DHT22;6119;52.372;8.990;2024-01-10T11:40:47;-1.70;99.90
12111;DHT22;6119;52.372;8.990;2024-01-10T11:43:34;-1.60;99.90
12111;DHT22;6119;52.372;8.990;2024-01-10T11:46:20;-1.60;99.90
12111;DHT22;6119;52.372;8.990;2024-01-10T11:49:09;-1.70;99.90
12111;DHT22;6119;52.372;8.990;2024-01-10T11:51:59;-1.60;99.90
12111;DHT22;6119;52.372;8.990;2024-01-10T11:54:46;-1.60;99.90
12111;DHT22;6119;52.372;8.990;2024-01-10T11:57:34;-1.50;99.90
12111;DHT22;6119;52.372;8.990;2024-01-10T12:00:22;-1.60;99.90
12111;DHT22;6119;52.372;8.990;2024-01-10T12:03:10;-1.60;99.90
12111;DHT22;6119;52.372;8.990;2024-01-10T12:05:58;-1.60;99.90
12111;DHT22;6119;52.372;8.990;2024-01-10T12:08:45;-1.50;99.90
12111;DHT22;6119;52.372;8.990;2024-01-10T12:11:32;-1.50;99.90
12111;DHT22;6119;52.372;8.990;2024-01-10T12:14:20;-1.60;99.90
12111;DHT22;6119;52.372;8.990;2024-01-10T12:17:07;-1.50;99.90
12111;DHT22;6119;52.372;8.990;2024-01-10T12:19:54;-1.50;99.90
12111;DHT22;6119;52.372;8.990;2024-01-10T12:22:41;-1.40;99.90
12111;DHT22;6119;52.372;8.990;2024-01-10T12:25:29;-1.40;99.90
12111;DHT22;6119;52.372;8.990;2024-01-10T12:28:17;-1.40;99.90
12111;DHT22;6119;52.372;8.990;2024-01-10T12:31:05;-1.30;99.90
12111;DHT22;6119;52.372;8.990;2024-01-10T12:33:55;-1.30;99.90
12111;DHT22;6119;52.372;8.990;2024-01-10T12:36:42;-1.20;99.90
12111;DHT22;6119;52.372;8.990;2024-01-10T12:39:29;-1.20;99.90
12111;DHT22;6119;52.372;8.990;2024-01-10T12:42:16;-1.20;99.90
12111;DHT22;6119;52.372;8.990;2024-01-10T12:45:04;-1.20;99.90
12111;DHT22;6119;52.372;8.990;2024-01-10T12:47:54;-1.20;99.90
12111;DHT22;6119;52.372;8.990;2024-01-10T12:50:41;-1.20;99.90
12111;DHT22;6119;52.372;8.990;2024-01-10T12:53:28;-1.20;99.90
12111;DHT22;6119;52.372;8.990;2024-01-10T12:56:15;-1.20;99.90
12111;DHT22;6119;52.372;8.990;2024-01-10T12:59:01;-1.30;99.90
12111;DHT22;6119;52.372;8.990;2024-01-10T13:01:49;-1.20;99.90
12111;DHT22;6119;52.372;8.990;2024-01-10T13:04:37;-1.20;99.90
12111;DHT22;6119;52.372;8.990;2024-01-10T13:07:24;-1.10;99.90
12111;DHT22;6119;52.372;8.990;2024-01-10T13:10:11;-1.20;99.90
12111;DHT22;6119;52.372;8.990;2024-01-10T13:12:58;-1.30;99.90
12111;DHT22;6119;52.372;8.990;2024-01-10T13:15:45;-1.20;99.90
12111;DHT22;6119;52.372;8.990;2024-01-10T13:18:32;-1.10;99.90
12111;DHT22;6119;52.372;8.990;2024-01-10T13:21:20;-1.10;99.90
12111;DHT22;6119;52.372;8.990;2024-01-10T13:24:07;-1.00;99.90
12111;DHT22;6119;52.372;8.990;2024-01-10T13:26:54;-1.00;99.90
12111;DHT22;6119;52.372;8.990;2024-01-10T13:29:41;-1.00;99.90
12111;DHT22;6119;52.372;8.990;2024-01-10T13:32:28;-0.90;99.90
12111;DHT22;6119;52.372;8.990;2024-01-10T13:35:15;-1.00;99.90
12111;DHT22;6119;52.372;8.990;2024-01-10T13:38:04;-0.90;99.90
12111;DHT22;6119;52.372;8.990;2024-01-10T13:40:51;-0.80;99.90
12111;DHT22;6119;52.372;8.990;2024-01-10T13:43:37;-0.80;99.90
12111;DHT22;6119;52.372;8.990;2024-01-10T13:46:25;-0.70;99.90
12111;DHT22;6119;52.372;8.990;2024-01-10T13:49:12;-0.60;99.90
12111;DHT22;6119;52.372;8.990;2024-01-10T13:51:59;-0.60;99.90
12111;DHT22;6119;52.372;8.990;2024-01-10T13:54:47;-0.60;99.90
12111;DHT22;6119;52.372;8.990;2024-01-10T13:57:34;-0.50;99.90
12111;DHT22;6119;52.372;8.990;2024-01-10T14:00:21;-0.50;99.90
12111;DHT22;6119;52.372;8.990;2024-01-10T14:03:07;-0.50;99.90
12111;DHT22;6119;52.372;8.990;2024-01-10T14:05:54;-0.60;99.90
12111;DHT22;6119;52.372;8.990;2024-01-10T14:08:41;-0.70;99.90
12111;DHT22;6119;52.372;8.990;2024-01-10T14:11:30;-0.80;99.90
12111;DHT22;6119;52.372;8.990;2024-01-10T14:14:18;-0.90;99.90
12111;DHT22;6119;52.372;8.990;2024-01-10T14:17:10;-0.90;99.90
12111;DHT22;6119;52.372;8.990;2024-01-10T14:19:57;-1.00;99.90
12111;DHT22;6119;52.372;8.990;2024-01-10T14:22:43;-1.00;99.90
12111;DHT22;6119;52.372;8.990;2024-01-10T14:25:30;-1.00;99.90
12111;DHT22;6119;52.372;8.990;2024-01-10T14:28:19;-0.40;99.90
12111;DHT22;6119;52.372;8.990;2024-01-10T14:31:07;-0.70;99.90
12111;DHT22;6119;52.372;8.990;2024-01-10T14:34:10;-0.90;99.90
12111;DHT22;6119;52.372;8.990;2024-01-10T14:36:57;-0.90;99.90
12111;DHT22;6119;52.372;8.990;2024-01-10T14:40:06;-1.60;99.90
12111;DHT22;6119;52.372;8.990;2024-01-10T14:42:57;-1.10;99.90
12111;DHT22;6119;52.372;8.990;2024-01-10T14:45:46;-1.10;99.90
12111;DHT22;6119;52.372;8.990;2024-01-10T14:48:32;-1.10;99.90
12111;DHT22;6119;52.372;8.990;2024-01-10T14:51:19;-1.10;99.90
12111;DHT22;6119;52.372;8.990;2024-01-10T14:54:06;-1.20;99.90
12111;DHT22;6119;52.372;8.990;2024-01-10T14:56:54;-1.20;99.90
12111;DHT22;6119;52.372;8.990;2024-01-10T14:59:41;-1.20;99.90
12111;DHT22;6119;52.372;8.990;2024-01-10T15:02:33;-1.20;99.90
12111;DHT22;6119;52.372;8.990;2024-01-10T15:05:24;-1.20;99.90
12111;DHT22;6119;52.372;8.990;2024-01-10T15:08:12;-1.20;99.90
12111;DHT22;6119;52.372;8.990;2024-01-10T15:10:58;-1.30;99.90
12111;DHT22;6119;52.372;8.990;2024-01-10T15:13:45;-1.30;99.90
12111;DHT22;6119;52.372;8.990;2024-01-10T15:16:34;-1.40;99.90
12111;DHT22;6119;52.372;8.990;2024-01-10T15:19:22;-1.40;99.90
12111;DHT22;6119;52.372;8.990;2024-01-10T15:22:09;-1.50;99.90
12111;DHT22;6119;52.372;8.990;2024-01-10T15:24:57;-1.50;99.90
12111;DHT22;6119;52.372;8.990;2024-01-10T15:27:44;-1.50;99.90
12111;DHT22;6119;52.372;8.990;2024-01-10T15:30:30;-1.60;99.90
12111;DHT22;6119;52.372;8.990;2024-01-10T15:33:31;-1.60;99.90
12111;DHT22;6119;52.372;8.990;2024-01-10T15:36:19;-1.60;99.90
12111;DHT22;6119;52.372;8.990;2024-01-10T15:39:06;-1.60;99.90
12111;DHT22;6119;52.372;8.990;2024-01-10T15:41:53;-1.70;99.90
12111;DHT22;6119;52.372;8.990;2024-01-10T15:44:42;-1.70;99.90
12111;DHT22;6119;52.372;8.990;2024-01-10T15:47:29;-1.70;99.90
12111;DHT22;6119;52.372;8.990;2024-01-10T15:50:16;-1.60;99.90
12111;DHT22;6119;52.372;8.990;2024-01-10T15:53:04;-1.70;99.90
12111;DHT22;6119;52.372;8.990;2024-01-10T15:55:51;-1.70;99.90
12111;DHT22;6119;52.372;8.990;2024-01-10T15:58:37;-1.90;99.90
12111;DHT22;6119;52.372;8.990;2024-01-10T16:01:24;-1.80;99.90
12111;DHT22;6119;52.372;8.990;2024-01-10T16:04:11;-1.80;99.90
12111;DHT22;6119;52.372;8.990;2024-01-10T16:06:57;-1.80;99.90
12111;DHT22;6119;52.372;8.990;2024-01-10T16:09:45;-1.80;99.90
12111;DHT22;6119;52.372;8.990;2024-01-10T16:12:32;-1.90;99.90
12111;DHT22;6119;52.372;8.990;2024-01-10T16:15:18;-1.90;99.90
12111;DHT22;6119;52.372;8.990;2024-01-10T16:18:05;-1.90;99.90
12111;DHT22;6119;52.372;8.990;2024-01-10T16:20:52;-2.00;99.90
12111;DHT22;6119;52.372;8.990;2024-01-10T16:23:39;-2.00;99.90
12111;DHT22;6119;52.372;8.990;2024-01-10T16:26:27;-2.00;99.90
12111;DHT22;6119;52.372;8.990;2024-01-10T16:29:13;-2.00;99.90
12111;DHT22;6119;52.372;8.990;2024-01-10T16:32:02;-2.00;99.90
12111;DHT22;6119;52.372;8.990;2024-01-10T16:34:49;-2.00;99.90
12111;DHT22;6119;52.372;8.990;2024-01-10T16:37:36;-2.10;99.90
12111;DHT22;6119;52.372;8.990;2024-01-10T16:40:22;-2.10;99.90
12111;DHT22;6119;52.372;8.990;2024-01-10T16:43:11;-2.10;99.90
12111;DHT22;6119;52.372;8.990;2024-01-10T16:45:58;-2.10;99.90
12111;DHT22;6119;52.372;8.990;2024-01-10T16:48:44;-2.10;99.90
12111;DHT22;6119;52.372;8.990;2024-01-10T16:51:31;-2.10;99.90
12111;DHT22;6119;52.372;8.990;2024-01-10T16:54:19;-2.10;99.90
12111;DHT22;6119;52.372;8.990;2024-01-10T16:57:05;-2.20;99.90
12111;DHT22;6119;52.372;8.990;2024-01-10T16:59:53;-2.10;99.90
12111;DHT22;6119;52.372;8.990;2024-01-10T17:02:40;-2.20;99.90
12111;DHT22;6119;52.372;8.990;2024-01-10T17:05:26;-2.20;99.90
12111;DHT22;6119;52.372;8.990;2024-01-10T17:08:13;-2.20;99.90
12111;DHT22;6119;52.372;8.990;2024-01-10T17:11:02;-2.20;99.90
12111;DHT22;6119;52.372;8.990;2024-01-10T17:13:49;-2.20;99.90
12111;DHT22;6119;52.372;8.990;2024-01-10T17:16:37;-2.20;99.90
12111;DHT22;6119;52.372;8.990;2024-01-10T17:19:24;-2.20;99.90
12111;DHT22;6119;52.372;8.990;2024-01-10T17:22:10;-2.20;99.90
12111;DHT22;6119;52.372;8.990;2024-01-10T17:24:58;-2.30;99.90
12111;DHT22;6119;52.372;8.990;2024-01-10T17:27:45;-2.30;99.90
12111;DHT22;6119;52.372;8.990;2024-01-10T17:30:32;-2.30;99.90
12111;DHT22;6119;52.372;8.990;2024-01-10T17:33:20;-2.30;99.90
12111;DHT22;6119;52.372;8.990;2024-01-10T17:36:07;-2.30;99.90
12111;DHT22;6119;52.372;8.990;2024-01-10T17:38:54;-2.30;99.90
12111;DHT22;6119;52.372;8.990;2024-01-10T17:41:41;-2.30;99.90
12111;DHT22;6119;52.372;8.990;2024-01-10T17:44:28;-2.30;99.90
12111;DHT22;6119;52.372;8.990;2024-01-10T17:47:15;-2.40;99.90
12111;DHT22;6119;52.372;8.990;2024-01-10T17:50:04;-2.40;99.90
12111;DHT22;6119;52.372;8.990;2024-01-10T17:52:51;-2.40;99.90
12111;DHT22;6119;52.372;8.990;2024-01-10T17:55:38;-2.40;99.90
12111;DHT22;6119;52.372;8.990;2024-01-10T17:58:25;-2.40;99.90
12111;DHT22;6119;52.372;8.990;2024-01-10T18:01:11;-2.40;99.90